CBW9 weather

Madrona Bay Heliport
Madrona Bay, British Columbia, Canada

Public forecast

Using degrees Celsius for public forecast. Weather courtesy of forecast.io.

Closest aviation weather report (METAR) to Madrona Bay Heliport

Closest report is Victoria International Airport, 12.8 nm (23.6 km) S. Retrieved 2020/04/09 13:00 UTC (29 minutes ago):

CYYJ 091300Z 27004KT 30SM FEW250 03/03 A3020 RMK CI1 SLP229

Closest aviation forecast (TAF) to Madrona Bay Heliport

Closest forecast is Victoria International Airport, 12.8 nm (23.6 km) S. Retrieved 2020/04/09 12:39 UTC (50 minutes ago):

TAF CYYJ 091138Z 0912/1012 25005KT P6SM FEW250 BECMG 0919/0921 10005KT BECMG 1004/1006 26005KT RMK NXT FCST BY 091800Z